FIN1PM EFHK-EKCH
Flight info
| Callsign | FIN1PM |
|---|---|
| Flight time | N/A |
| Altitude | 40000 |
| Route | NUNTO Y369 REKDO DCT KOSKA DCT TOKSI N872 ERNOV |
| Aircraft | E190/M-SDE3GILORVW/S |
Departure
| Time | 2026-05-05 08:50 |
|---|---|
| Airport | Helsinki Vantaa Airport (EFHK) |
Arrival
| Time | N/A |
|---|---|
| Airport | Copenhagen Kastrup Airport (EKCH) |
| Time | Latitude | Longitude | Altitude | Speed | Heading |
|---|---|---|---|---|---|
| 2026-05-05 08:30 | 60.31596 | 24.97288 | 162 ft | 0 kts | 243° |
| 2026-05-05 08:42 | 60.31598 | 24.97293 | 162 ft | 2 kts | 243° |
| 2026-05-05 08:42 | 60.31604 | 24.97321 | 162 ft | 2 kts | 243° |
| 2026-05-05 08:43 | 60.31611 | 24.97347 | 162 ft | 2 kts | 243° |
| 2026-05-05 08:43 | 60.31618 | 24.97374 | 163 ft | 2 kts | 243° |
| 2026-05-05 08:43 | 60.31623 | 24.97393 | 162 ft | 1 kts | 272° |
| 2026-05-05 08:43 | 60.31620 | 24.97408 | 162 ft | 0 kts | 327° |
| 2026-05-05 08:44 | 60.31615 | 24.97412 | 162 ft | 0 kts | 340° |
| 2026-05-05 08:44 | 60.31612 | 24.97416 | 162 ft | 0 kts | 332° |
| 2026-05-05 08:45 | 60.31615 | 24.97413 | 162 ft | 2 kts | 332° |
| 2026-05-05 08:45 | 60.31649 | 24.97376 | 162 ft | 8 kts | 332° |
| 2026-05-05 08:46 | 60.31715 | 24.97305 | 162 ft | 14 kts | 330° |
| 2026-05-05 08:46 | 60.31822 | 24.97196 | 163 ft | 18 kts | 332° |
| 2026-05-05 08:46 | 60.31937 | 24.97078 | 163 ft | 18 kts | 333° |
| 2026-05-05 08:46 | 60.32062 | 24.96946 | 164 ft | 22 kts | 330° |
| 2026-05-05 08:47 | 60.32194 | 24.96791 | 166 ft | 21 kts | 332° |
| 2026-05-05 08:47 | 60.32328 | 24.96636 | 166 ft | 23 kts | 329° |
| 2026-05-05 08:47 | 60.32476 | 24.96462 | 169 ft | 26 kts | 328° |
| 2026-05-05 08:47 | 60.32654 | 24.96256 | 170 ft | 31 kts | 329° |
| 2026-05-05 08:48 | 60.32855 | 24.96018 | 174 ft | 35 kts | 329° |
| 2026-05-05 08:48 | 60.33067 | 24.95767 | 175 ft | 35 kts | 322° |
| 2026-05-05 08:48 | 60.33207 | 24.95446 | 181 ft | 26 kts | 268° |
| 2026-05-05 08:48 | 60.33118 | 24.95174 | 183 ft | 21 kts | 245° |
| 2026-05-05 08:49 | 60.33110 | 24.94894 | 185 ft | 19 kts | 273° |
| 2026-05-05 08:49 | 60.33117 | 24.94615 | 185 ft | 19 kts | 272° |
| 2026-05-05 08:49 | 60.33098 | 24.94358 | 185 ft | 18 kts | 230° |
| 2026-05-05 08:49 | 60.32986 | 24.94107 | 185 ft | 51 kts | 230° |
| 2026-05-05 08:50 | 60.32538 | 24.93113 | 177 ft | 135 kts | 232° |
| 2026-05-05 08:50 | 60.31836 | 24.91479 | 553 ft | 171 kts | 232° |
| 2026-05-05 08:50 | 60.31023 | 24.89481 | 1308 ft | 198 kts | 234° |
| 2026-05-05 08:50 | 60.30140 | 24.87378 | 2332 ft | 202 kts | 237° |
| 2026-05-05 08:51 | 60.29789 | 24.84860 | 3351 ft | 177 kts | 277° |
| 2026-05-05 08:51 | 60.30026 | 24.82461 | 4192 ft | 180 kts | 278° |
| 2026-05-05 08:51 | 60.30209 | 24.79966 | 5069 ft | 187 kts | 274° |
| 2026-05-05 08:51 | 60.30133 | 24.77358 | 5899 ft | 196 kts | 252° |
| 2026-05-05 08:52 | 60.29683 | 24.74801 | 6878 ft | 200 kts | 250° |
| 2026-05-05 08:52 | 60.29197 | 24.72213 | 7882 ft | 204 kts | 250° |
| 2026-05-05 08:52 | 60.28687 | 24.69594 | 8933 ft | 206 kts | 249° |
| 2026-05-05 08:52 | 60.28163 | 24.66953 | 9950 ft | 208 kts | 249° |
| 2026-05-05 08:53 | 60.27617 | 24.64233 | 10713 ft | 219 kts | 249° |
| 2026-05-05 08:53 | 60.27026 | 24.61314 | 11302 ft | 235 kts | 249° |
| 2026-05-05 08:53 | 60.26394 | 24.58209 | 12071 ft | 245 kts | 249° |
| 2026-05-05 08:53 | 60.25753 | 24.55075 | 13027 ft | 249 kts | 249° |
| 2026-05-05 08:54 | 60.25097 | 24.51874 | 14011 ft | 249 kts | 249° |
| 2026-05-05 08:54 | 60.24444 | 24.48723 | 14958 ft | 250 kts | 247° |
| 2026-05-05 08:54 | 60.23627 | 24.45572 | 15596 ft | 261 kts | 244° |
| 2026-05-05 08:54 | 60.22746 | 24.42290 | 16131 ft | 276 kts | 244° |
| 2026-05-05 08:55 | 60.21816 | 24.38830 | 16807 ft | 285 kts | 244° |
| 2026-05-05 08:55 | 60.20883 | 24.35368 | 17666 ft | 287 kts | 244° |
| 2026-05-05 08:55 | 60.19944 | 24.31888 | 18571 ft | 287 kts | 243° |
| 2026-05-05 08:55 | 60.18996 | 24.28379 | 19431 ft | 288 kts | 243° |
| 2026-05-05 08:56 | 60.18038 | 24.24839 | 20231 ft | 291 kts | 244° |
| 2026-05-05 08:56 | 60.17083 | 24.21309 | 21001 ft | 294 kts | 243° |
| 2026-05-05 08:56 | 60.16109 | 24.17720 | 21740 ft | 297 kts | 243° |
| 2026-05-05 08:56 | 60.15120 | 24.14082 | 22463 ft | 300 kts | 243° |
| 2026-05-05 08:57 | 60.14116 | 24.10395 | 23158 ft | 304 kts | 243° |
| 2026-05-05 08:57 | 60.13110 | 24.06703 | 23844 ft | 307 kts | 243° |
| 2026-05-05 08:57 | 60.12078 | 24.02924 | 24522 ft | 310 kts | 243° |
| 2026-05-05 08:57 | 60.11041 | 23.99132 | 25143 ft | 314 kts | 243° |
| 2026-05-05 08:58 | 60.09997 | 23.95324 | 25773 ft | 318 kts | 243° |
| 2026-05-05 08:58 | 60.08926 | 23.91423 | 26396 ft | 322 kts | 243° |
| 2026-05-05 08:58 | 60.07867 | 23.87468 | 27014 ft | 325 kts | 244° |
| 2026-05-05 08:58 | 60.06813 | 23.83437 | 27611 ft | 329 kts | 244° |
| 2026-05-05 08:59 | 60.05764 | 23.79424 | 28199 ft | 332 kts | 244° |
| 2026-05-05 08:59 | 60.04685 | 23.75310 | 28791 ft | 335 kts | 244° |
| 2026-05-05 08:59 | 60.03607 | 23.71205 | 29374 ft | 338 kts | 244° |
| 2026-05-05 08:59 | 60.02511 | 23.67038 | 29940 ft | 341 kts | 244° |
| 2026-05-05 09:00 | 60.01402 | 23.62831 | 30474 ft | 344 kts | 244° |
| 2026-05-05 09:00 | 60.00290 | 23.58620 | 30983 ft | 348 kts | 244° |
| 2026-05-05 09:00 | 59.99155 | 23.54328 | 31451 ft | 351 kts | 244° |
| 2026-05-05 09:00 | 59.98014 | 23.50024 | 31913 ft | 354 kts | 244° |
| 2026-05-05 09:01 | 59.96862 | 23.45686 | 32402 ft | 357 kts | 244° |
| 2026-05-05 09:01 | 59.95719 | 23.41393 | 32954 ft | 357 kts | 244° |
| 2026-05-05 09:01 | 59.94561 | 23.37052 | 33548 ft | 355 kts | 244° |
| 2026-05-05 09:01 | 59.93405 | 23.32721 | 34106 ft | 354 kts | 243° |
| 2026-05-05 09:02 | 59.92254 | 23.28420 | 34611 ft | 354 kts | 243° |
| 2026-05-05 09:02 | 59.91109 | 23.24148 | 34988 ft | 355 kts | 243° |
| 2026-05-05 09:02 | 59.89952 | 23.19845 | 35321 ft | 356 kts | 243° |
| 2026-05-05 09:02 | 59.88783 | 23.15498 | 35639 ft | 357 kts | 243° |
| 2026-05-05 09:03 | 59.87623 | 23.11198 | 35956 ft | 359 kts | 243° |
| 2026-05-05 09:03 | 59.86445 | 23.06837 | 36236 ft | 360 kts | 243° |
| 2026-05-05 09:03 | 59.85250 | 23.02424 | 36499 ft | 363 kts | 243° |
| 2026-05-05 09:03 | 59.84055 | 22.98016 | 36747 ft | 365 kts | 243° |
| 2026-05-05 09:04 | 59.82847 | 22.93572 | 37016 ft | 367 kts | 243° |
| 2026-05-05 09:04 | 59.81648 | 22.89158 | 37255 ft | 369 kts | 243° |
| 2026-05-05 09:04 | 59.80431 | 22.84704 | 37521 ft | 370 kts | 243° |
| 2026-05-05 09:04 | 59.79204 | 22.80221 | 37729 ft | 372 kts | 243° |
| 2026-05-05 09:05 | 59.77974 | 22.75730 | 37937 ft | 374 kts | 243° |
| 2026-05-05 09:05 | 59.76742 | 22.71242 | 38152 ft | 375 kts | 243° |
| 2026-05-05 09:05 | 59.75496 | 22.66710 | 38368 ft | 376 kts | 243° |
| 2026-05-05 09:05 | 59.74248 | 22.62180 | 38586 ft | 377 kts | 243° |
| 2026-05-05 09:06 | 59.72997 | 22.57650 | 38841 ft | 378 kts | 243° |
| 2026-05-05 09:06 | 59.71743 | 22.53116 | 39047 ft | 380 kts | 243° |
| 2026-05-05 09:06 | 59.70480 | 22.48560 | 39262 ft | 381 kts | 243° |
| 2026-05-05 09:06 | 59.69195 | 22.43933 | 39490 ft | 381 kts | 243° |
| 2026-05-05 09:07 | 59.67926 | 22.39371 | 39688 ft | 382 kts | 243° |
| 2026-05-05 09:07 | 59.65346 | 22.30130 | 39768 ft | 392 kts | 242° |
| 2026-05-05 09:08 | 59.62682 | 22.20626 | 39771 ft | 404 kts | 242° |
| 2026-05-05 09:08 | 59.59926 | 22.10835 | 39770 ft | 412 kts | 242° |
| 2026-05-05 09:09 | 59.57142 | 22.00988 | 39771 ft | 411 kts | 242° |
| 2026-05-05 09:09 | 59.54357 | 21.91179 | 39769 ft | 410 kts | 242° |
| 2026-05-05 09:10 | 59.51582 | 21.81444 | 39784 ft | 410 kts | 242° |
| 2026-05-05 09:10 | 59.48783 | 21.71668 | 39778 ft | 411 kts | 242° |
| 2026-05-05 09:11 | 59.46002 | 21.62000 | 39778 ft | 411 kts | 242° |
| 2026-05-05 09:11 | 59.43234 | 21.52406 | 39781 ft | 411 kts | 242° |
| 2026-05-05 09:12 | 59.40503 | 21.42975 | 39785 ft | 411 kts | 242° |
| 2026-05-05 09:12 | 59.37846 | 21.33835 | 39783 ft | 411 kts | 241° |
| 2026-05-05 09:13 | 59.35017 | 21.24144 | 39799 ft | 412 kts | 241° |
| 2026-05-05 09:13 | 59.32184 | 21.14480 | 39787 ft | 411 kts | 241° |
| 2026-05-05 09:14 | 59.29339 | 21.04816 | 39791 ft | 411 kts | 241° |
| 2026-05-05 09:14 | 59.26483 | 20.95153 | 39798 ft | 412 kts | 241° |
| 2026-05-05 09:15 | 59.23628 | 20.85535 | 39795 ft | 410 kts | 241° |
| 2026-05-05 09:15 | 59.20775 | 20.75962 | 39804 ft | 411 kts | 241° |
| 2026-05-05 09:16 | 59.17926 | 20.66381 | 39804 ft | 410 kts | 244° |
| 2026-05-05 09:16 | 59.15400 | 20.56495 | 39792 ft | 411 kts | 244° |
| 2026-05-05 09:17 | 59.12836 | 20.46600 | 39816 ft | 411 kts | 244° |
| 2026-05-05 09:17 | 59.10254 | 20.36694 | 39808 ft | 411 kts | 244° |
| 2026-05-05 09:18 | 59.07681 | 20.26862 | 39818 ft | 412 kts | 244° |
| 2026-05-05 09:18 | 59.05087 | 20.16999 | 39822 ft | 411 kts | 243° |
| 2026-05-05 09:19 | 59.02491 | 20.07173 | 39824 ft | 411 kts | 244° |
| 2026-05-05 09:19 | 58.99892 | 19.97376 | 39823 ft | 410 kts | 243° |
| 2026-05-05 09:20 | 58.97297 | 19.87632 | 39816 ft | 409 kts | 244° |
| 2026-05-05 09:20 | 58.94681 | 19.77860 | 39810 ft | 411 kts | 244° |
| 2026-05-05 09:21 | 58.92065 | 19.68127 | 39808 ft | 411 kts | 244° |
| 2026-05-05 09:21 | 58.89443 | 19.58411 | 39816 ft | 411 kts | 244° |
| 2026-05-05 09:22 | 58.86809 | 19.48694 | 39806 ft | 411 kts | 244° |
| 2026-05-05 09:22 | 58.84162 | 19.38971 | 39811 ft | 411 kts | 244° |
| 2026-05-05 09:23 | 58.81511 | 19.29275 | 39803 ft | 411 kts | 243° |
| 2026-05-05 09:23 | 58.78848 | 19.19575 | 39792 ft | 412 kts | 243° |
| 2026-05-05 09:24 | 58.76186 | 19.09920 | 39810 ft | 411 kts | 243° |
| 2026-05-05 09:24 | 58.73503 | 19.00230 | 39827 ft | 410 kts | 243° |
| 2026-05-05 09:25 | 58.70824 | 18.90598 | 39814 ft | 411 kts | 243° |
| 2026-05-05 09:25 | 58.68129 | 18.80947 | 39816 ft | 413 kts | 243° |
| 2026-05-05 09:26 | 58.65420 | 18.71291 | 39816 ft | 412 kts | 243° |
| 2026-05-05 09:26 | 58.62722 | 18.61711 | 39828 ft | 412 kts | 243° |
| 2026-05-05 09:27 | 58.60001 | 18.52090 | 39829 ft | 413 kts | 243° |
| 2026-05-05 09:27 | 58.57259 | 18.42433 | 39841 ft | 412 kts | 243° |
| 2026-05-05 09:28 | 58.54536 | 18.32886 | 39834 ft | 413 kts | 242° |
| 2026-05-05 09:28 | 58.51785 | 18.23280 | 39834 ft | 412 kts | 242° |
| 2026-05-05 09:29 | 58.49038 | 18.13729 | 39831 ft | 413 kts | 242° |
| 2026-05-05 09:29 | 58.46281 | 18.04182 | 39808 ft | 412 kts | 242° |
| 2026-05-05 09:30 | 58.43510 | 17.94624 | 39838 ft | 414 kts | 242° |
| 2026-05-05 09:30 | 58.40727 | 17.85068 | 39853 ft | 414 kts | 242° |
| 2026-05-05 09:31 | 58.37947 | 17.75561 | 39825 ft | 414 kts | 242° |
| 2026-05-05 09:31 | 58.35158 | 17.66059 | 39830 ft | 413 kts | 242° |
| 2026-05-05 09:32 | 58.32353 | 17.56542 | 39840 ft | 414 kts | 242° |
| 2026-05-05 09:32 | 58.29546 | 17.47061 | 39829 ft | 413 kts | 242° |
| 2026-05-05 09:33 | 58.26725 | 17.37570 | 39836 ft | 413 kts | 242° |
| 2026-05-05 09:33 | 58.23938 | 17.28228 | 39830 ft | 413 kts | 241° |
| 2026-05-05 09:34 | 58.21111 | 17.18796 | 39844 ft | 413 kts | 242° |
| 2026-05-05 09:34 | 58.18277 | 17.09374 | 39833 ft | 413 kts | 241° |
| 2026-05-05 09:35 | 58.15425 | 16.99935 | 39816 ft | 413 kts | 242° |
| 2026-05-05 09:35 | 58.11145 | 16.85832 | 39829 ft | 414 kts | 241° |
| 2026-05-05 09:36 | 58.08268 | 16.76404 | 39842 ft | 414 kts | 241° |
| 2026-05-05 09:36 | 58.05386 | 16.66997 | 39856 ft | 414 kts | 241° |
| 2026-05-05 09:37 | 58.02517 | 16.57670 | 39827 ft | 413 kts | 241° |
| 2026-05-05 09:37 | 57.99626 | 16.48307 | 39823 ft | 413 kts | 242° |
| 2026-05-05 09:38 | 57.96752 | 16.39038 | 39816 ft | 413 kts | 241° |
| 2026-05-05 09:38 | 57.93850 | 16.29716 | 39830 ft | 413 kts | 241° |
| 2026-05-05 09:39 | 57.91025 | 16.20677 | 39842 ft | 413 kts | 241° |
| 2026-05-05 09:39 | 57.88181 | 16.11608 | 39843 ft | 412 kts | 240° |
| 2026-05-05 09:40 | 57.85266 | 16.02351 | 39835 ft | 412 kts | 241° |
| 2026-05-05 09:40 | 57.82357 | 15.93150 | 39831 ft | 412 kts | 241° |
| 2026-05-05 09:41 | 57.79478 | 15.84080 | 39845 ft | 412 kts | 241° |
| 2026-05-05 09:41 | 57.76546 | 15.74877 | 39841 ft | 412 kts | 241° |
| 2026-05-05 09:42 | 57.73603 | 15.65675 | 39853 ft | 412 kts | 241° |
| 2026-05-05 09:42 | 57.70680 | 15.56572 | 39847 ft | 412 kts | 241° |
| 2026-05-05 09:43 | 57.67719 | 15.47386 | 39838 ft | 412 kts | 241° |
| 2026-05-05 09:43 | 57.64761 | 15.38245 | 39849 ft | 408 kts | 241° |
| 2026-05-05 09:44 | 57.63330 | 15.33838 | 39836 ft | 395 kts | 240° |
| 2026-05-05 09:44 | 57.61942 | 15.29567 | 39836 ft | 392 kts | 240° |
| 2026-05-05 09:44 | 57.59094 | 15.20828 | 39852 ft | 395 kts | 240° |
| 2026-05-05 09:45 | 57.56226 | 15.12064 | 39861 ft | 395 kts | 240° |
| 2026-05-05 09:45 | 57.53365 | 15.03354 | 39875 ft | 396 kts | 240° |
| 2026-05-05 09:46 | 57.50502 | 14.94668 | 39882 ft | 396 kts | 240° |
| 2026-05-05 09:46 | 57.47646 | 14.86033 | 39882 ft | 396 kts | 240° |
| 2026-05-05 09:47 | 57.46191 | 14.81648 | 39611 ft | 400 kts | 240° |
| 2026-05-05 09:47 | 57.44742 | 14.77286 | 39201 ft | 397 kts | 240° |
| 2026-05-05 09:47 | 57.43282 | 14.72904 | 38756 ft | 393 kts | 240° |
| 2026-05-05 09:47 | 57.41870 | 14.68669 | 38326 ft | 389 kts | 240° |
| 2026-05-05 09:48 | 57.40454 | 14.64430 | 37901 ft | 387 kts | 240° |
| 2026-05-05 09:48 | 57.39018 | 14.60141 | 37467 ft | 387 kts | 240° |
| 2026-05-05 09:48 | 57.37609 | 14.55941 | 37043 ft | 386 kts | 240° |
| 2026-05-05 09:48 | 57.36203 | 14.51755 | 36615 ft | 387 kts | 240° |
| 2026-05-05 09:49 | 57.34780 | 14.47524 | 36211 ft | 385 kts | 240° |
| 2026-05-05 09:49 | 57.33385 | 14.43387 | 35872 ft | 386 kts | 240° |
| 2026-05-05 09:49 | 57.31963 | 14.39177 | 35457 ft | 387 kts | 240° |
| 2026-05-05 09:49 | 57.30558 | 14.35023 | 35009 ft | 384 kts | 240° |
| 2026-05-05 09:50 | 57.29149 | 14.30864 | 34504 ft | 380 kts | 239° |
| 2026-05-05 09:50 | 57.27751 | 14.26746 | 34075 ft | 380 kts | 239° |
| 2026-05-05 09:50 | 57.26346 | 14.22615 | 33654 ft | 383 kts | 239° |
| 2026-05-05 09:50 | 57.24923 | 14.18438 | 33226 ft | 385 kts | 239° |
| 2026-05-05 09:51 | 57.23488 | 14.14230 | 32795 ft | 387 kts | 239° |
| 2026-05-05 09:51 | 57.22055 | 14.10038 | 32367 ft | 387 kts | 239° |
| 2026-05-05 09:51 | 57.20629 | 14.05877 | 31945 ft | 388 kts | 239° |
| 2026-05-05 09:51 | 57.19191 | 14.01681 | 31517 ft | 389 kts | 239° |
| 2026-05-05 09:52 | 57.17725 | 13.97417 | 31081 ft | 390 kts | 239° |
| 2026-05-05 09:52 | 57.16178 | 13.93336 | 30647 ft | 390 kts | 232° |
| 2026-05-05 09:52 | 57.14276 | 13.89827 | 30219 ft | 389 kts | 225° |
| 2026-05-05 09:52 | 57.12203 | 13.86597 | 29771 ft | 388 kts | 223° |
| 2026-05-05 09:53 | 57.10088 | 13.83529 | 29340 ft | 385 kts | 221° |
| 2026-05-05 09:53 | 57.07968 | 13.80533 | 28914 ft | 382 kts | 221° |
| 2026-05-05 09:53 | 57.05872 | 13.77599 | 28493 ft | 381 kts | 221° |
| 2026-05-05 09:53 | 57.03769 | 13.74669 | 28074 ft | 379 kts | 221° |
| 2026-05-05 09:54 | 57.01677 | 13.71763 | 27656 ft | 376 kts | 221° |
| 2026-05-05 09:54 | 56.99596 | 13.68875 | 27240 ft | 374 kts | 221° |
| 2026-05-05 09:54 | 56.97552 | 13.66044 | 26833 ft | 371 kts | 221° |
| 2026-05-05 09:54 | 56.95482 | 13.63183 | 26419 ft | 368 kts | 221° |
| 2026-05-05 09:55 | 56.93465 | 13.60396 | 26019 ft | 366 kts | 221° |
| 2026-05-05 09:55 | 56.91446 | 13.57613 | 25616 ft | 363 kts | 221° |
| 2026-05-05 09:55 | 56.89431 | 13.54838 | 25216 ft | 360 kts | 221° |
| 2026-05-05 09:55 | 56.87456 | 13.52121 | 24826 ft | 358 kts | 221° |
| 2026-05-05 09:56 | 56.85482 | 13.49410 | 24433 ft | 356 kts | 221° |
| 2026-05-05 09:56 | 56.83500 | 13.46692 | 24039 ft | 353 kts | 221° |
| 2026-05-05 09:56 | 56.81562 | 13.44037 | 23659 ft | 350 kts | 221° |
| 2026-05-05 09:56 | 56.79612 | 13.41370 | 23277 ft | 349 kts | 221° |
| 2026-05-05 09:57 | 56.77688 | 13.38742 | 22898 ft | 347 kts | 221° |
| 2026-05-05 09:57 | 56.75749 | 13.36096 | 22516 ft | 346 kts | 221° |
| 2026-05-05 09:57 | 56.73845 | 13.33502 | 22145 ft | 345 kts | 220° |
| 2026-05-05 09:57 | 56.71942 | 13.30906 | 21768 ft | 343 kts | 220° |
| 2026-05-05 09:58 | 56.70020 | 13.28286 | 21390 ft | 341 kts | 220° |
| 2026-05-05 09:58 | 56.68148 | 13.25735 | 21017 ft | 339 kts | 220° |
| 2026-05-05 09:58 | 56.66275 | 13.23186 | 20643 ft | 338 kts | 220° |
| 2026-05-05 09:58 | 56.64408 | 13.20649 | 20291 ft | 335 kts | 220° |
| 2026-05-05 09:59 | 56.62615 | 13.18229 | 21640 ft | 315 kts | 220° |
| 2026-05-05 09:59 | 56.60829 | 13.15827 | 21455 ft | 338 kts | 220° |
| 2026-05-05 09:59 | 56.58910 | 13.13276 | 20657 ft | 343 kts | 219° |
| 2026-05-05 09:59 | 56.57002 | 13.10784 | 19587 ft | 351 kts | 220° |
| 2026-05-05 10:00 | 56.55067 | 13.08209 | 18996 ft | 338 kts | 220° |
| 2026-05-05 10:00 | 56.53246 | 13.05810 | 19612 ft | 321 kts | 220° |
| 2026-05-05 10:00 | 56.51379 | 13.03360 | 18945 ft | 342 kts | 220° |
| 2026-05-05 10:00 | 56.49508 | 13.00908 | 19197 ft | 332 kts | 220° |
| 2026-05-05 10:01 | 56.47655 | 12.98480 | 18791 ft | 334 kts | 220° |
| 2026-05-05 10:01 | 56.45782 | 12.96027 | 18313 ft | 331 kts | 220° |
| 2026-05-05 10:01 | 56.43711 | 12.94180 | 17827 ft | 339 kts | 198° |
| 2026-05-05 10:01 | 56.41355 | 12.94090 | 17405 ft | 347 kts | 183° |
| 2026-05-05 10:02 | 56.38952 | 12.93971 | 16950 ft | 340 kts | 191° |
| 2026-05-05 10:02 | 56.36641 | 12.93485 | 16485 ft | 337 kts | 194° |
| 2026-05-05 10:02 | 56.34336 | 12.92859 | 16013 ft | 334 kts | 195° |
| 2026-05-05 10:02 | 56.32051 | 12.92184 | 15541 ft | 332 kts | 195° |
| 2026-05-05 10:03 | 56.29792 | 12.91495 | 15074 ft | 330 kts | 195° |
| 2026-05-05 10:03 | 56.27529 | 12.90798 | 14601 ft | 328 kts | 195° |
| 2026-05-05 10:03 | 56.25313 | 12.90111 | 14137 ft | 326 kts | 195° |
| 2026-05-05 10:03 | 56.23080 | 12.89418 | 13666 ft | 325 kts | 195° |
| 2026-05-05 10:04 | 56.20856 | 12.88729 | 13199 ft | 324 kts | 195° |
| 2026-05-05 10:04 | 56.18626 | 12.88039 | 12728 ft | 323 kts | 195° |
| 2026-05-05 10:04 | 56.16445 | 12.87364 | 12262 ft | 321 kts | 195° |
| 2026-05-05 10:04 | 56.14237 | 12.86682 | 11793 ft | 320 kts | 194° |
| 2026-05-05 10:05 | 56.12091 | 12.86021 | 11325 ft | 314 kts | 194° |
| 2026-05-05 10:05 | 56.09963 | 12.85366 | 10844 ft | 307 kts | 194° |
| 2026-05-05 10:05 | 56.07872 | 12.84722 | 10355 ft | 299 kts | 194° |
| 2026-05-05 10:05 | 56.05864 | 12.84105 | 9887 ft | 293 kts | 194° |
| 2026-05-05 10:06 | 56.03878 | 12.83494 | 9417 ft | 288 kts | 194° |
| 2026-05-05 10:06 | 56.01914 | 12.82891 | 8929 ft | 283 kts | 194° |
| 2026-05-05 10:06 | 55.99994 | 12.82302 | 8456 ft | 279 kts | 193° |
| 2026-05-05 10:06 | 55.98123 | 12.81729 | 7984 ft | 277 kts | 193° |
| 2026-05-05 10:07 | 55.96243 | 12.81153 | 7526 ft | 275 kts | 193° |
| 2026-05-05 10:07 | 55.94381 | 12.80584 | 7065 ft | 274 kts | 193° |
| 2026-05-05 10:07 | 55.92504 | 12.80011 | 6596 ft | 272 kts | 193° |
| 2026-05-05 10:07 | 55.90850 | 12.79506 | 6169 ft | 270 kts | 192° |
| 2026-05-05 10:08 | 55.89016 | 12.78947 | 5696 ft | 268 kts | 192° |
| 2026-05-05 10:08 | 55.87238 | 12.78406 | 5229 ft | 267 kts | 192° |